createdAt,value
2022-09-28T00:01:34.103Z,98910.22
2022-09-28T00:04:00.289Z,98903.13
2022-09-28T00:06:26.435Z,98905.84
2022-09-28T00:08:52.563Z,98899.78
2022-09-28T00:11:18.690Z,98896.16
2022-09-28T00:13:44.832Z,98897.81
2022-09-28T00:16:11.026Z,98896.88
2022-09-28T00:18:37.220Z,98884.91
2022-09-28T00:21:03.330Z,98877.94
2022-09-28T00:23:29.450Z,98872.50
2022-09-28T00:25:55.599Z,98864.19
2022-09-28T00:28:21.721Z,98861.56
2022-09-28T00:30:47.863Z,98859.69
2022-09-28T00:33:14.015Z,98852.50
2022-09-28T00:35:40.166Z,98848.31
2022-09-28T00:38:06.309Z,98847.47
2022-09-28T00:40:32.479Z,98859.38
2022-09-28T00:42:58.655Z,98851.44
2022-09-28T00:45:24.857Z,98842.69
2022-09-28T00:47:51.066Z,98840.56
2022-09-28T00:50:17.225Z,98839.03
2022-09-28T00:52:43.379Z,98841.63
2022-09-28T00:55:11.703Z,98834.44
2022-09-28T00:57:37.832Z,98830.06
2022-09-28T01:00:03.950Z,98834.84
2022-09-28T01:02:30.170Z,98827.03
2022-09-28T01:04:56.315Z,98823.91
2022-09-28T01:07:22.428Z,98816.63
2022-09-28T01:09:48.585Z,98803.91
2022-09-28T01:12:14.701Z,98801.69
2022-09-28T01:14:40.841Z,98795.41
2022-09-28T01:17:06.968Z,98794.28
2022-09-28T01:19:33.125Z,98788.38
2022-09-28T01:21:59.283Z,98787.44
2022-09-28T01:24:25.415Z,98782.97
2022-09-28T01:26:51.519Z,98779.16
2022-09-28T01:29:17.804Z,98780.22
2022-09-28T01:31:44.082Z,98775.38
2022-09-28T01:34:10.223Z,98768.47
2022-09-28T01:36:36.374Z,98769.53
2022-09-28T01:39:02.501Z,98761.59
2022-09-28T01:41:28.657Z,98757.44
2022-09-28T01:43:54.795Z,98753.19
2022-09-28T01:46:20.993Z,98748.59
2022-09-28T01:48:47.124Z,98741.50
2022-09-28T01:51:13.257Z,98749.19
2022-09-28T01:53:39.391Z,98739.16
2022-09-28T01:56:05.526Z,98740.81
2022-09-28T01:58:31.676Z,98738.66
2022-09-28T02:00:57.857Z,98734.25
2022-09-28T02:03:24.019Z,98728.13
2022-09-28T02:05:50.137Z,98718.97
2022-09-28T02:08:16.282Z,98715.75
2022-09-28T02:10:42.414Z,98719.25
2022-09-28T02:13:08.524Z,98720.31
2022-09-28T02:15:34.660Z,98732.38
2022-09-28T02:18:00.816Z,98727.00
2022-09-28T02:20:26.969Z,98720.53
2022-09-28T02:22:53.082Z,98719.47
2022-09-28T02:25:19.229Z,98715.75
2022-09-28T02:27:45.357Z,98707.81
2022-09-28T02:30:11.498Z,98715.03
2022-09-28T02:32:37.615Z,98709.25
2022-09-28T02:35:03.782Z,98716.38
2022-09-28T02:37:29.950Z,98703.69
2022-09-28T02:39:56.077Z,98701.50
2022-09-28T02:42:22.226Z,98693.69
2022-09-28T02:44:48.400Z,98685.38
2022-09-28T02:47:14.530Z,98682.19
2022-09-28T02:49:40.658Z,98694.53
2022-09-28T02:52:06.813Z,98706.28
2022-09-28T02:54:32.928Z,98702.69
2022-09-28T02:56:59.076Z,98700.31
2022-09-28T02:59:25.185Z,98706.22
2022-09-28T03:01:51.373Z,98700.81
2022-09-28T03:04:17.507Z,98696.75
2022-09-28T03:06:43.652Z,98692.63
2022-09-28T03:09:09.840Z,98681.44
2022-09-28T03:11:35.992Z,98690.16
2022-09-28T03:14:02.125Z,98692.88
2022-09-28T03:16:28.298Z,98695.50
2022-09-28T03:18:54.448Z,98698.22
2022-09-28T03:21:20.609Z,98687.91
2022-09-28T03:23:46.734Z,98693.00
2022-09-28T03:26:12.860Z,98694.75
2022-09-28T03:28:39.015Z,98698.31
2022-09-28T03:31:05.199Z,98698.09
2022-09-28T03:33:31.333Z,98693.13
2022-09-28T03:35:57.481Z,98695.94
2022-09-28T03:38:23.614Z,98701.66
2022-09-28T03:40:49.784Z,98691.56
2022-09-28T03:43:15.964Z,98684.56
2022-09-28T03:45:42.140Z,98697.38
2022-09-28T03:48:08.286Z,98707.47
2022-09-28T03:50:34.439Z,98695.94
2022-09-28T03:53:00.584Z,98683.16
2022-09-28T03:55:26.708Z,98680.03
2022-09-28T03:57:53.070Z,98682.88
2022-09-28T04:00:19.218Z,98678.59
2022-09-28T04:02:45.388Z,98677.88
2022-09-28T04:05:11.553Z,98678.47
2022-09-28T04:07:37.682Z,98690.69
2022-09-28T04:10:03.814Z,98693.47
2022-09-28T04:12:29.950Z,98691.06
2022-09-28T04:14:56.130Z,98682.97
2022-09-28T04:17:22.274Z,98686.91
2022-09-28T04:19:48.499Z,98695.44
2022-09-28T04:22:14.616Z,98696.59
2022-09-28T04:24:40.752Z,98694.56
2022-09-28T04:27:06.883Z,98696.31
2022-09-28T04:29:33.028Z,98697.78
2022-09-28T04:31:59.236Z,98698.84
2022-09-28T04:34:25.408Z,98693.97
2022-09-28T04:36:51.556Z,98705.44
2022-09-28T04:39:17.800Z,98712.59
2022-09-28T04:41:43.967Z,98716.16
2022-09-28T04:44:10.106Z,98705.97
2022-09-28T04:46:36.251Z,98707.84
2022-09-28T04:49:02.356Z,98712.31
2022-09-28T04:51:28.495Z,98720.13
2022-09-28T04:53:54.675Z,98717.53
2022-09-28T04:56:20.801Z,98709.72
2022-09-28T04:58:51.754Z,98711.38
2022-09-28T05:01:18.823Z,98718.38
2022-09-28T05:03:44.999Z,98709.50
2022-09-28T05:06:11.148Z,98718.25
2022-09-28T05:08:37.286Z,98719.28
2022-09-28T05:11:03.405Z,98711.69
2022-09-28T05:13:29.527Z,98727.31
2022-09-28T05:15:58.874Z,98725.66
2022-09-28T05:18:26.833Z,98720.03
2022-09-28T05:20:52.994Z,98722.94
2022-09-28T05:23:19.419Z,98737.53
2022-09-28T05:25:45.628Z,98732.00
2022-09-28T05:28:11.773Z,98729.19
2022-09-28T05:30:37.889Z,98734.09
2022-09-28T05:33:04.040Z,98729.06
2022-09-28T05:35:30.225Z,98729.50
2022-09-28T05:37:56.390Z,98729.50
2022-09-28T05:40:22.531Z,98726.56
2022-09-28T05:42:48.657Z,98738.13
2022-09-28T05:45:14.826Z,98744.78
2022-09-28T05:47:40.967Z,98739.88
2022-09-28T05:50:07.111Z,98746.22
2022-09-28T05:52:33.248Z,98751.53
2022-09-28T05:54:59.364Z,98739.88
2022-09-28T05:57:25.494Z,98747.78
2022-09-28T05:59:51.595Z,98746.22
2022-09-28T06:02:17.911Z,98750.63
2022-09-28T06:04:44.123Z,98759.06
2022-09-28T06:07:12.563Z,98764.16
2022-09-28T06:09:38.722Z,98763.91
2022-09-28T06:12:07.919Z,98763.91
2022-09-28T06:14:34.068Z,98774.00
2022-09-28T06:17:00.319Z,98773.69
2022-09-28T06:19:26.535Z,98766.50
2022-09-28T06:21:52.667Z,98771.19
2022-09-28T06:24:19.058Z,98768.34
2022-09-28T06:26:45.428Z,98769.59
2022-09-28T06:29:13.716Z,98782.38
2022-09-28T06:31:46.534Z,98773.94
2022-09-28T06:34:12.677Z,98780.88
2022-09-28T06:36:38.805Z,98782.34
2022-09-28T06:39:04.971Z,98783.25
2022-09-28T06:41:38.211Z,98787.59
2022-09-28T06:46:44.684Z,98795.41
2022-09-28T06:49:19.701Z,98796.47
2022-09-28T06:51:45.897Z,98804.31
2022-09-28T06:54:12.015Z,98808.16
2022-09-28T06:56:38.300Z,98813.66
2022-09-28T06:59:04.413Z,98815.78
2022-09-28T07:01:30.618Z,98814.38
2022-09-28T07:03:56.824Z,98815.41
2022-09-28T07:06:22.998Z,98819.34
2022-09-28T07:09:02.497Z,98827.84
2022-09-28T07:11:36.376Z,98822.47
2022-09-28T07:14:02.518Z,98818.03
2022-09-28T07:16:47.755Z,98825.50
2022-09-28T07:19:14.790Z,98825.88
2022-09-28T07:21:40.922Z,98824.31
2022-09-28T07:24:07.074Z,98827.38
2022-09-28T07:26:33.222Z,98832.03
2022-09-28T07:28:59.354Z,98834.72
2022-09-28T07:31:25.506Z,98840.41
2022-09-28T07:33:51.623Z,98831.75
2022-09-28T07:36:17.810Z,98840.13
2022-09-28T07:38:43.980Z,98843.47
2022-09-28T07:41:10.213Z,98854.25
2022-09-28T07:43:36.443Z,98855.94
2022-09-28T07:46:02.696Z,98861.53
2022-09-28T07:48:28.905Z,98864.59
2022-09-28T07:50:55.038Z,98864.97
2022-09-28T07:53:21.226Z,98870.06
2022-09-28T07:55:47.375Z,98868.84
2022-09-28T07:58:13.524Z,98872.50
2022-09-28T08:00:39.683Z,98876.41
2022-09-28T08:03:05.836Z,98886.03
2022-09-28T08:05:32.018Z,98883.50
2022-09-28T08:07:58.173Z,98887.66
2022-09-28T08:10:24.325Z,98890.53
2022-09-28T08:12:51.705Z,98892.69
2022-09-28T08:15:17.870Z,98895.75
2022-09-28T08:17:44.032Z,98890.53
2022-09-28T08:20:10.203Z,98898.41
2022-09-28T08:22:36.331Z,98897.94
2022-09-28T08:25:02.483Z,98907.09
2022-09-28T08:27:28.623Z,98904.94
2022-09-28T08:29:54.803Z,98907.19
2022-09-28T08:32:21.016Z,98908.38
2022-09-28T08:34:47.157Z,98909.59
2022-09-28T08:37:13.274Z,98905.69
2022-09-28T08:39:39.437Z,98904.75
2022-09-28T08:42:05.594Z,98906.63
2022-09-28T08:44:31.776Z,98904.44
2022-09-28T08:46:57.957Z,98918.69
2022-09-28T08:49:26.141Z,98912.25
2022-09-28T08:51:52.667Z,98916.97
2022-09-28T08:54:18.943Z,98916.50
2022-09-28T08:56:45.167Z,98917.16
2022-09-28T08:59:11.391Z,98927.63
2022-09-28T09:01:37.567Z,98922.13
2022-09-28T09:04:03.703Z,98919.78
2022-09-28T09:06:29.876Z,98920.38
2022-09-28T09:08:56.042Z,98926.03
2022-09-28T09:11:22.301Z,98929.09
2022-09-28T09:13:48.505Z,98929.34
2022-09-28T09:16:14.712Z,98927.84
2022-09-28T09:18:40.916Z,98928.84
2022-09-28T09:21:07.075Z,98933.59
2022-09-28T09:23:33.238Z,98925.66
2022-09-28T09:25:59.369Z,98938.22
2022-09-28T09:28:25.506Z,98936.53
2022-09-28T09:30:51.772Z,98941.16
2022-09-28T09:33:17.948Z,98942.63
2022-09-28T09:35:44.074Z,98948.50
2022-09-28T09:38:10.232Z,98942.97
2022-09-28T09:40:36.401Z,98935.28
2022-09-28T09:43:02.546Z,98940.22
2022-09-28T09:45:28.672Z,98941.13
2022-09-28T09:47:54.820Z,98945.97
2022-09-28T09:50:20.953Z,98940.66
2022-09-28T09:52:47.080Z,98940.47
2022-09-28T09:55:13.215Z,98950.19
2022-09-28T09:57:39.347Z,98947.53
2022-09-28T10:00:05.477Z,98950.63
2022-09-28T10:02:31.735Z,98947.53
2022-09-28T10:04:57.939Z,98948.97
2022-09-28T10:07:24.052Z,98948.59
2022-09-28T10:09:50.207Z,98953.75
2022-09-28T10:12:16.356Z,98957.31
2022-09-28T10:14:42.504Z,98956.25
2022-09-28T10:17:08.697Z,98950.34
2022-09-28T10:19:34.865Z,98951.16
2022-09-28T10:22:00.976Z,98952.56
2022-09-28T10:24:27.106Z,98953.75
2022-09-28T10:26:53.247Z,98953.97
2022-09-28T10:29:19.550Z,98955.88
2022-09-28T10:31:45.823Z,98954.81
2022-09-28T10:34:12.054Z,98957.78
2022-09-28T10:36:38.227Z,98961.47
2022-09-28T10:39:04.368Z,98963.56
2022-09-28T10:41:30.520Z,98968.44
2022-09-28T10:43:58.163Z,98965.94
2022-09-28T10:46:24.464Z,98964.06
2022-09-28T10:48:50.672Z,98970.38
2022-09-28T10:51:16.798Z,98957.06
2022-09-28T10:53:42.942Z,98968.00
2022-09-28T10:56:09.076Z,98971.34
2022-09-28T10:58:35.220Z,98948.06
2022-09-28T11:01:01.448Z,98971.38
2022-09-28T11:03:27.712Z,98967.06
2022-09-28T11:05:53.851Z,98969.47
2022-09-28T11:08:19.977Z,98963.47
2022-09-28T11:10:46.121Z,98961.09
2022-09-28T11:13:12.271Z,98967.50
2022-09-28T11:15:38.419Z,98966.44
2022-09-28T11:18:04.580Z,98954.22
2022-09-28T11:20:30.701Z,98955.91
2022-09-28T11:22:56.851Z,98962.34
2022-09-28T11:25:22.962Z,98956.25
2022-09-28T11:27:49.073Z,98953.88
2022-09-28T11:30:15.227Z,98955.34
2022-09-28T11:32:41.419Z,98951.16
2022-09-28T11:35:07.587Z,98950.84
2022-09-28T11:37:33.717Z,98940.94
2022-09-28T11:39:59.886Z,98942.34
2022-09-28T11:42:26.010Z,98943.47
2022-09-28T11:44:52.157Z,98944.34
2022-09-28T11:47:18.321Z,98946.00
2022-09-28T11:49:44.472Z,98945.00
2022-09-28T11:52:10.605Z,98933.66
2022-09-28T11:54:36.748Z,98938.81
2022-09-28T11:57:06.756Z,98944.91
2022-09-28T11:59:33.087Z,98936.78
2022-09-28T12:01:59.279Z,98929.78
2022-09-28T12:04:25.461Z,98927.84
2022-09-28T12:06:51.628Z,98934.84
2022-09-28T12:09:17.888Z,98929.69
2022-09-28T12:11:44.110Z,98922.03
2022-09-28T12:14:10.264Z,98925.41
2022-09-28T12:17:04.203Z,98916.50
2022-09-28T12:19:22.562Z,98936.25
2022-09-28T12:21:48.757Z,98919.72
2022-09-28T12:24:14.902Z,98933.50
2022-09-28T12:26:41.065Z,98923.84
2022-09-28T12:29:07.206Z,98923.69
2022-09-28T12:31:33.367Z,98916.34
2022-09-28T12:33:59.511Z,98915.50
2022-09-28T12:36:25.633Z,98914.00
2022-09-28T12:39:14.682Z,98920.56
2022-09-28T12:41:37.912Z,98911.78
2022-09-28T12:44:04.059Z,98912.34
2022-09-28T12:46:30.220Z,98913.25
2022-09-28T12:49:33.130Z,98919.34
2022-09-28T12:51:42.515Z,98915.91
2022-09-28T12:54:08.664Z,98910.25
2022-09-28T12:56:34.807Z,98912.75
2022-09-28T12:59:00.952Z,98909.72
2022-09-28T13:01:27.215Z,98905.16
2022-09-28T13:03:53.479Z,98915.22
2022-09-28T13:06:19.620Z,98915.06
2022-09-28T13:08:45.873Z,98906.56
2022-09-28T13:11:12.107Z,98911.44
2022-09-28T13:13:38.273Z,98918.25
2022-09-28T13:16:04.468Z,98912.91
2022-09-28T13:18:30.685Z,98913.31
2022-09-28T13:20:56.991Z,98918.41
2022-09-28T13:23:23.205Z,98914.00
2022-09-28T13:25:49.373Z,98915.66
2022-09-28T13:28:17.014Z,98909.16
2022-09-28T13:30:43.381Z,98914.50
2022-09-28T13:33:09.594Z,98907.13
2022-09-28T13:35:35.758Z,98913.25
2022-09-28T13:38:01.887Z,98911.00
2022-09-28T13:40:28.091Z,98910.41
2022-09-28T13:42:54.304Z,98918.47
2022-09-28T13:45:20.451Z,98918.50
2022-09-28T13:47:46.591Z,98914.97
2022-09-28T13:50:12.756Z,98919.13
2022-09-28T13:52:38.921Z,98916.50
2022-09-28T13:55:05.069Z,98917.47
2022-09-28T13:57:31.207Z,98915.22
2022-09-28T13:59:57.365Z,98922.00
2022-09-28T14:02:23.514Z,98920.34
2022-09-28T14:04:49.681Z,98924.75
2022-09-28T14:07:16.008Z,98922.13
2022-09-28T14:09:42.180Z,98930.94
2022-09-28T14:12:08.356Z,98932.03
2022-09-28T14:14:34.503Z,98931.19
2022-09-28T14:17:00.663Z,98932.59
2022-09-28T14:19:26.836Z,98937.69
2022-09-28T14:21:53.083Z,98926.47
2022-09-28T14:24:19.223Z,98931.72
2022-09-28T14:26:45.403Z,98934.50
2022-09-28T14:29:11.614Z,98935.34
2022-09-28T14:31:37.941Z,98931.66
2022-09-28T14:34:04.094Z,98938.31
2022-09-28T14:36:30.297Z,98934.28
2022-09-28T14:38:59.450Z,98933.34
2022-09-28T14:41:25.613Z,98942.22
2022-09-28T14:43:51.756Z,98939.88
2022-09-28T14:46:17.985Z,98939.19
2022-09-28T14:48:44.153Z,98950.03
2022-09-28T14:51:10.314Z,98948.34
2022-09-28T14:53:36.446Z,98947.53
2022-09-28T14:56:02.570Z,98949.47
2022-09-28T14:58:28.740Z,98956.91
2022-09-28T15:00:54.862Z,98962.16
2022-09-28T15:03:21.023Z,98959.09
2022-09-28T15:05:47.290Z,98956.69
2022-09-28T15:08:13.545Z,98955.84
2022-09-28T15:10:39.690Z,98957.38
2022-09-28T15:13:05.819Z,98964.78
2022-09-28T15:15:32.049Z,98968.94
2022-09-28T15:17:58.241Z,98957.59
2022-09-28T15:20:24.373Z,98963.50
2022-09-28T15:22:50.602Z,98967.88
2022-09-28T15:25:16.727Z,98968.97
2022-09-28T15:27:43.001Z,98970.91
2022-09-28T15:30:09.209Z,98975.31
2022-09-28T15:32:35.413Z,98971.50
2022-09-28T15:35:01.587Z,98969.69
2022-09-28T15:37:27.775Z,98970.63
2022-09-28T15:39:53.890Z,98973.25
2022-09-28T15:42:20.044Z,98972.09
2022-09-28T15:44:46.190Z,98969.06
2022-09-28T15:47:12.350Z,98969.09
2022-09-28T15:49:39.197Z,98966.03
2022-09-28T15:52:05.441Z,98974.59
2022-09-28T15:54:31.589Z,98970.06
2022-09-28T15:56:57.717Z,98986.41
2022-09-28T15:59:24.017Z,98976.78
2022-09-28T16:01:50.287Z,98979.91
2022-09-28T16:04:16.489Z,98980.97
2022-09-28T16:06:42.660Z,98982.69
2022-09-28T16:09:09.418Z,98977.50
2022-09-28T16:11:35.637Z,98981.31
2022-09-28T16:14:01.829Z,98978.97
2022-09-28T16:16:28.061Z,98981.38
2022-09-28T16:18:54.200Z,98984.38
2022-09-28T16:21:20.363Z,98982.94
2022-09-28T16:23:46.478Z,98980.13
2022-09-28T16:26:12.622Z,98983.00
2022-09-28T16:28:38.792Z,98988.81
2022-09-28T16:31:05.014Z,98978.09
2022-09-28T16:33:31.293Z,98988.22
2022-09-28T16:35:57.501Z,98993.59
2022-09-28T16:38:23.703Z,98993.94
2022-09-28T16:40:49.901Z,98997.03
2022-09-28T16:43:16.177Z,98996.78
2022-09-28T16:45:42.290Z,99003.13
2022-09-28T16:48:08.416Z,99005.59
2022-09-28T16:50:34.575Z,99007.75
2022-09-28T16:53:00.721Z,99011.41
2022-09-28T16:55:39.947Z,99013.81
2022-09-28T16:58:07.193Z,99012.72
2022-09-28T17:00:33.353Z,99016.31
2022-09-28T17:02:59.539Z,99020.22
2022-09-28T17:05:25.706Z,99023.19
2022-09-28T17:07:52.009Z,99018.22
2022-09-28T17:10:18.257Z,99014.19
2022-09-28T17:12:44.463Z,99020.47
2022-09-28T17:15:10.595Z,99022.97
2022-09-28T17:17:36.727Z,99024.13
2022-09-28T17:20:02.901Z,99029.72
2022-09-28T17:22:29.041Z,99019.38
2022-09-28T17:24:55.192Z,99032.41
2022-09-28T17:27:21.344Z,99034.88
2022-09-28T17:29:47.666Z,99031.78
2022-09-28T17:32:13.817Z,99034.25
2022-09-28T17:34:39.955Z,99038.63
2022-09-28T17:37:06.107Z,99039.66
2022-09-28T17:39:32.292Z,99037.06
2022-09-28T17:41:58.421Z,99038.25
2022-09-28T17:44:24.543Z,99041.78
2022-09-28T17:46:50.725Z,99050.81
2022-09-28T17:49:16.890Z,99053.53
2022-09-28T17:51:43.019Z,99044.13
2022-09-28T17:54:09.206Z,99045.81
2022-09-28T17:56:35.373Z,99051.03
2022-09-28T17:59:01.554Z,99051.97
2022-09-28T18:01:27.773Z,99055.41
2022-09-28T18:03:53.956Z,99058.13
2022-09-28T18:06:20.092Z,99054.16
2022-09-28T18:08:46.241Z,99062.34
2022-09-28T18:11:12.354Z,99065.16
2022-09-28T18:13:38.508Z,99059.88
2022-09-28T18:16:04.749Z,99067.00
2022-09-28T18:18:31.005Z,99062.72
2022-09-28T18:20:57.128Z,99070.25
2022-09-28T18:23:23.265Z,99072.25
2022-09-28T18:25:49.423Z,99075.19
2022-09-28T18:28:15.596Z,99078.44
2022-09-28T18:30:41.820Z,99074.69
2022-09-28T18:33:08.150Z,99079.00
2022-09-28T18:35:34.278Z,99087.38
2022-09-28T18:38:00.408Z,99087.69
2022-09-28T18:40:26.608Z,99082.59
2022-09-28T18:42:52.812Z,99095.13
2022-09-28T18:45:18.985Z,99092.50
2022-09-28T18:47:45.105Z,99092.69
2022-09-28T18:50:11.262Z,99101.47
2022-09-28T18:52:37.421Z,99101.03
2022-09-28T18:55:03.576Z,99103.00
2022-09-28T18:57:29.708Z,99101.56
2022-09-28T18:59:55.872Z,99104.28
2022-09-28T19:02:22.069Z,99103.66
2022-09-28T19:04:48.258Z,99109.50
2022-09-28T19:07:14.370Z,99110.75
2022-09-28T19:09:40.537Z,99117.00
2022-09-28T19:12:06.777Z,99118.03
2022-09-28T19:14:32.886Z,99120.97
2022-09-28T19:16:59.022Z,99123.88
2022-09-28T19:19:25.193Z,99117.31
2022-09-28T19:21:51.353Z,99129.69
2022-09-28T19:24:17.502Z,99123.44
2022-09-28T19:26:43.625Z,99131.38
2022-09-28T19:29:09.760Z,99135.75
2022-09-28T19:31:35.897Z,99133.34
2022-09-28T19:34:02.062Z,99134.06
2022-09-28T19:36:28.191Z,99131.56
2022-09-28T19:38:54.343Z,99129.06
2022-09-28T19:41:20.531Z,99131.16
2022-09-28T19:43:46.708Z,99127.91
2022-09-28T19:46:12.880Z,99130.63
2022-09-28T19:48:39.099Z,99137.91
2022-09-28T19:51:05.266Z,99137.25
2022-09-28T19:53:31.384Z,99151.63
2022-09-28T19:55:57.532Z,99149.00
2022-09-28T19:58:25.439Z,99156.25
2022-09-28T20:00:51.562Z,99161.69
2022-09-28T20:03:17.917Z,99162.81
2022-09-28T20:05:44.038Z,99158.63
2022-09-28T20:08:10.188Z,99159.03
2022-09-28T20:10:36.280Z,99169.44
2022-09-28T20:13:02.396Z,99165.38
2022-09-28T20:15:28.577Z,99168.91
2022-09-28T20:17:54.728Z,99167.22
2022-09-28T20:20:20.875Z,99170.88
2022-09-28T20:22:46.996Z,99167.31
2022-09-28T20:25:13.124Z,99164.81
2022-09-28T20:27:39.288Z,99168.47
2022-09-28T20:30:05.398Z,99169.47
2022-09-28T20:32:31.507Z,99173.78
2022-09-28T20:34:57.665Z,99179.09
2022-09-28T20:37:23.858Z,99180.19
2022-09-28T20:39:49.989Z,99179.91
2022-09-28T20:42:16.131Z,99181.84
2022-09-28T20:44:42.234Z,99185.09
2022-09-28T20:47:08.377Z,99184.56
2022-09-28T20:49:34.509Z,99185.41
2022-09-28T20:52:00.650Z,99189.13
2022-09-28T20:54:26.780Z,99189.22
2022-09-28T20:56:52.904Z,99185.81
2022-09-28T20:59:19.047Z,99193.63
2022-09-28T21:01:45.347Z,99190.25
2022-09-28T21:04:11.622Z,99184.31
2022-09-28T21:06:37.885Z,99187.00
2022-09-28T21:09:04.026Z,99186.06
2022-09-28T21:11:30.131Z,99190.47
2022-09-28T21:13:56.268Z,99190.56
2022-09-28T21:16:22.394Z,99193.97
2022-09-28T21:18:48.508Z,99190.47
2022-09-28T21:21:14.660Z,99193.22
2022-09-28T21:23:40.776Z,99189.63
2022-09-28T21:26:06.879Z,99187.41
2022-09-28T21:28:33.011Z,99180.59
2022-09-28T21:30:59.151Z,99184.16
2022-09-28T21:33:25.276Z,99180.59
2022-09-28T21:35:51.390Z,99186.56
2022-09-28T21:38:17.520Z,99183.22
2022-09-28T21:40:43.722Z,99178.09
2022-09-28T21:43:09.897Z,99181.34
2022-09-28T21:45:35.992Z,99180.81
2022-09-28T21:48:02.151Z,99176.25
2022-09-28T21:50:28.280Z,99178.00
2022-09-28T21:52:54.405Z,99176.44
2022-09-28T21:55:20.505Z,99180.25
2022-09-28T21:57:46.621Z,99177.66
2022-09-28T22:00:12.733Z,99172.66
2022-09-28T22:02:38.912Z,99174.50
2022-09-28T22:05:05.081Z,99180.81
2022-09-28T22:07:31.218Z,99179.06
2022-09-28T22:09:57.333Z,99187.91
2022-09-28T22:12:23.476Z,99185.00
2022-09-28T22:14:49.590Z,99184.16
2022-09-28T22:17:15.698Z,99181.56
2022-09-28T22:19:41.843Z,99188.50
2022-09-28T22:22:07.970Z,99186.22
2022-09-28T22:24:34.084Z,99185.34
2022-09-28T22:27:00.219Z,99183.16
2022-09-28T22:29:26.351Z,99184.19
2022-09-28T22:31:52.455Z,99180.00
2022-09-28T22:34:18.803Z,99178.22
2022-09-28T22:36:45.036Z,99181.03
2022-09-28T22:39:11.145Z,99179.63
2022-09-28T22:41:37.279Z,99176.94
2022-09-28T22:44:03.390Z,99184.06
2022-09-28T22:46:29.601Z,99180.81
2022-09-28T22:48:55.918Z,99181.75
2022-09-28T22:51:22.036Z,99182.78
2022-09-28T22:53:48.185Z,99179.72
2022-09-28T22:56:18.440Z,99181.56
2022-09-28T22:58:45.254Z,99182.88
2022-09-28T23:01:11.414Z,99188.31
2022-09-28T23:03:37.600Z,99178.78
2022-09-28T23:06:03.716Z,99185.00
2022-09-28T23:08:29.831Z,99179.91
2022-09-28T23:10:55.969Z,99188.78
2022-09-28T23:13:22.095Z,99181.28
2022-09-28T23:15:48.257Z,99187.28
2022-09-28T23:18:14.387Z,99191.81
2022-09-28T23:20:40.512Z,99192.84
2022-09-28T23:23:06.649Z,99191.25
2022-09-28T23:25:32.799Z,99187.38
2022-09-28T23:27:58.914Z,99195.97
2022-09-28T23:30:25.020Z,99196.44
2022-09-28T23:32:51.155Z,99187.88
2022-09-28T23:35:17.267Z,99192.09
2022-09-28T23:37:43.375Z,99187.56
2022-09-28T23:40:09.529Z,99190.31
2022-09-28T23:42:35.674Z,99184.22
2022-09-28T23:45:01.842Z,99187.22
2022-09-28T23:47:28.022Z,99178.69
2022-09-28T23:49:54.132Z,99188.06
2022-09-28T23:52:20.243Z,99188.97
2022-09-28T23:54:46.355Z,99192.50
2022-09-28T23:57:12.484Z,99190.28
2022-09-28T23:59:38.613Z,99197.59
